sensor_id;sensor_type;location;lat;lon;timestamp;P1;durP1;ratioP1;P2;durP2;ratioP2
73850;SDS011;62190;51.548;5.688;2023-05-10T00:01:29;33.78;;;12.85;;
73850;SDS011;62190;51.548;5.688;2023-05-10T00:03:58;36.63;;;13.20;;
73850;SDS011;62190;51.548;5.688;2023-05-10T00:06:25;23.07;;;11.73;;
73850;SDS011;62190;51.548;5.688;2023-05-10T00:08:53;29.12;;;12.70;;
73850;SDS011;62190;51.548;5.688;2023-05-10T00:11:21;39.35;;;15.95;;
73850;SDS011;62190;51.548;5.688;2023-05-10T00:13:50;43.38;;;15.23;;
73850;SDS011;62190;51.548;5.688;2023-05-10T00:16:17;49.20;;;16.75;;
73850;SDS011;62190;51.548;5.688;2023-05-10T00:18:44;29.82;;;13.18;;
73850;SDS011;62190;51.548;5.688;2023-05-10T00:21:11;55.33;;;17.75;;
73850;SDS011;62190;51.548;5.688;2023-05-10T00:23:40;38.80;;;14.18;;
73850;SDS011;62190;51.548;5.688;2023-05-10T00:26:07;40.25;;;15.30;;
73850;SDS011;62190;51.548;5.688;2023-05-10T00:28:36;57.80;;;18.98;;
73850;SDS011;62190;51.548;5.688;2023-05-10T00:31:06;43.52;;;17.10;;
73850;SDS011;62190;51.548;5.688;2023-05-10T00:33:32;82.97;;;19.85;;
73850;SDS011;62190;51.548;5.688;2023-05-10T00:36:00;46.98;;;16.85;;
73850;SDS011;62190;51.548;5.688;2023-05-10T00:38:32;82.82;;;22.67;;
73850;SDS011;62190;51.548;5.688;2023-05-10T00:41:01;49.30;;;20.10;;
73850;SDS011;62190;51.548;5.688;2023-05-10T00:43:32;76.33;;;25.12;;
73850;SDS011;62190;51.548;5.688;2023-05-10T00:45:59;70.62;;;22.10;;
73850;SDS011;62190;51.548;5.688;2023-05-10T00:48:28;83.72;;;23.98;;
73850;SDS011;62190;51.548;5.688;2023-05-10T00:50:56;102.30;;;28.55;;
73850;SDS011;62190;51.548;5.688;2023-05-10T00:53:24;74.25;;;26.05;;
73850;SDS011;62190;51.548;5.688;2023-05-10T00:55:53;70.42;;;24.50;;
73850;SDS011;62190;51.548;5.688;2023-05-10T00:58:20;93.72;;;28.95;;
73850;SDS011;62190;51.548;5.688;2023-05-10T01:00:49;88.33;;;31.65;;
73850;SDS011;62190;51.548;5.688;2023-05-10T01:03:17;94.92;;;28.15;;
73850;SDS011;62190;51.548;5.688;2023-05-10T01:05:45;142.37;;;36.88;;
73850;SDS011;62190;51.548;5.688;2023-05-10T01:08:12;133.90;;;29.63;;
73850;SDS011;62190;51.548;5.688;2023-05-10T01:10:39;108.32;;;34.13;;
73850;SDS011;62190;51.548;5.688;2023-05-10T01:13:07;112.35;;;34.23;;
73850;SDS011;62190;51.548;5.688;2023-05-10T01:15:35;113.47;;;34.60;;
73850;SDS011;62190;51.548;5.688;2023-05-10T01:18:04;123.13;;;35.23;;
73850;SDS011;62190;51.548;5.688;2023-05-10T01:20:36;140.73;;;38.38;;
73850;SDS011;62190;51.548;5.688;2023-05-10T01:26:14;99.73;;;30.80;;
73850;SDS011;62190;51.548;5.688;2023-05-10T01:37:59;163.50;;;41.65;;
73850;SDS011;62190;51.548;5.688;2023-05-10T01:40:20;117.15;;;38.65;;
73850;SDS011;62190;51.548;5.688;2023-05-10T01:42:56;182.75;;;43.98;;
73850;SDS011;62190;51.548;5.688;2023-05-10T01:45:38;176.85;;;45.95;;
73850;SDS011;62190;51.548;5.688;2023-05-10T01:48:08;155.82;;;41.53;;
73850;SDS011;62190;51.548;5.688;2023-05-10T01:50:35;203.20;;;47.48;;
73850;SDS011;62190;51.548;5.688;2023-05-10T01:53:06;158.75;;;42.13;;
73850;SDS011;62190;51.548;5.688;2023-05-10T01:55:35;138.80;;;43.73;;
73850;SDS011;62190;51.548;5.688;2023-05-10T01:58:13;187.43;;;42.95;;
73850;SDS011;62190;51.548;5.688;2023-05-10T02:00:45;146.18;;;40.43;;
73850;SDS011;62190;51.548;5.688;2023-05-10T02:03:16;94.10;;;35.45;;
73850;SDS011;62190;51.548;5.688;2023-05-10T02:05:43;180.30;;;44.63;;
73850;SDS011;62190;51.548;5.688;2023-05-10T02:08:12;132.15;;;43.98;;
73850;SDS011;62190;51.548;5.688;2023-05-10T02:10:40;161.07;;;44.75;;
73850;SDS011;62190;51.548;5.688;2023-05-10T02:13:09;147.05;;;45.35;;
73850;SDS011;62190;51.548;5.688;2023-05-10T02:15:37;181.72;;;50.75;;
73850;SDS011;62190;51.548;5.688;2023-05-10T02:18:09;170.77;;;48.40;;
73850;SDS011;62190;51.548;5.688;2023-05-10T02:20:39;222.45;;;62.67;;
73850;SDS011;62190;51.548;5.688;2023-05-10T02:23:06;258.55;;;63.70;;
73850;SDS011;62190;51.548;5.688;2023-05-10T02:25:34;217.37;;;66.67;;
73850;SDS011;62190;51.548;5.688;2023-05-10T02:28:04;236.22;;;66.37;;
73850;SDS011;62190;51.548;5.688;2023-05-10T02:30:33;234.10;;;63.65;;
73850;SDS011;62190;51.548;5.688;2023-05-10T02:33:02;216.35;;;64.62;;
73850;SDS011;62190;51.548;5.688;2023-05-10T02:35:31;172.72;;;56.08;;
73850;SDS011;62190;51.548;5.688;2023-05-10T02:37:59;185.95;;;57.50;;
73850;SDS011;62190;51.548;5.688;2023-05-10T02:40:27;233.47;;;66.70;;
73850;SDS011;62190;51.548;5.688;2023-05-10T02:42:54;203.70;;;64.10;;
73850;SDS011;62190;51.548;5.688;2023-05-10T02:45:25;175.38;;;58.10;;
73850;SDS011;62190;51.548;5.688;2023-05-10T02:47:54;170.90;;;55.80;;
73850;SDS011;62190;51.548;5.688;2023-05-10T02:50:21;149.55;;;51.15;;
73850;SDS011;62190;51.548;5.688;2023-05-10T02:52:51;208.65;;;57.55;;
73850;SDS011;62190;51.548;5.688;2023-05-10T02:55:19;191.40;;;64.72;;
73850;SDS011;62190;51.548;5.688;2023-05-10T02:57:51;148.15;;;54.50;;
73850;SDS011;62190;51.548;5.688;2023-05-10T03:00:19;208.00;;;60.55;;
73850;SDS011;62190;51.548;5.688;2023-05-10T03:02:46;178.02;;;62.20;;
73850;SDS011;62190;51.548;5.688;2023-05-10T03:05:15;220.07;;;61.42;;
73850;SDS011;62190;51.548;5.688;2023-05-10T03:07:43;153.95;;;58.73;;
73850;SDS011;62190;51.548;5.688;2023-05-10T03:10:11;148.80;;;54.70;;
73850;SDS011;62190;51.548;5.688;2023-05-10T03:12:41;176.27;;;58.98;;
73850;SDS011;62190;51.548;5.688;2023-05-10T03:15:19;157.50;;;55.90;;
73850;SDS011;62190;51.548;5.688;2023-05-10T03:17:57;210.35;;;61.45;;
73850;SDS011;62190;51.548;5.688;2023-05-10T03:20:39;128.35;;;56.33;;
73850;SDS011;62190;51.548;5.688;2023-05-10T03:23:12;117.53;;;50.80;;
73850;SDS011;62190;51.548;5.688;2023-05-10T03:25:40;123.10;;;51.55;;
73850;SDS011;62190;51.548;5.688;2023-05-10T03:28:09;109.37;;;48.70;;
73850;SDS011;62190;51.548;5.688;2023-05-10T03:30:40;119.35;;;48.52;;
73850;SDS011;62190;51.548;5.688;2023-05-10T03:33:07;170.80;;;55.80;;
73850;SDS011;62190;51.548;5.688;2023-05-10T03:35:36;158.75;;;53.63;;
73850;SDS011;62190;51.548;5.688;2023-05-10T03:38:04;133.15;;;51.50;;
73850;SDS011;62190;51.548;5.688;2023-05-10T03:40:31;147.62;;;52.10;;
73850;SDS011;62190;51.548;5.688;2023-05-10T03:42:59;129.15;;;50.28;;
73850;SDS011;62190;51.548;5.688;2023-05-10T03:45:26;136.18;;;50.50;;
73850;SDS011;62190;51.548;5.688;2023-05-10T03:47:54;138.75;;;54.85;;
73850;SDS011;62190;51.548;5.688;2023-05-10T03:50:21;129.35;;;49.90;;
73850;SDS011;62190;51.548;5.688;2023-05-10T03:52:49;122.30;;;48.80;;
73850;SDS011;62190;51.548;5.688;2023-05-10T03:55:16;166.15;;;54.50;;
73850;SDS011;62190;51.548;5.688;2023-05-10T03:57:44;120.40;;;49.63;;
73850;SDS011;62190;51.548;5.688;2023-05-10T04:00:13;132.30;;;50.40;;
73850;SDS011;62190;51.548;5.688;2023-05-10T04:02:40;128.47;;;51.13;;
73850;SDS011;62190;51.548;5.688;2023-05-10T04:05:09;125.27;;;48.58;;
73850;SDS011;62190;51.548;5.688;2023-05-10T04:07:36;135.65;;;50.52;;
73850;SDS011;62190;51.548;5.688;2023-05-10T04:10:04;157.50;;;53.28;;
73850;SDS011;62190;51.548;5.688;2023-05-10T04:12:35;110.03;;;47.00;;
73850;SDS011;62190;51.548;5.688;2023-05-10T04:15:02;138.60;;;48.35;;
73850;SDS011;62190;51.548;5.688;2023-05-10T04:17:32;111.47;;;45.25;;
73850;SDS011;62190;51.548;5.688;2023-05-10T04:19:59;147.72;;;48.55;;
73850;SDS011;62190;51.548;5.688;2023-05-10T04:22:27;113.88;;;43.98;;
73850;SDS011;62190;51.548;5.688;2023-05-10T04:24:56;134.03;;;44.45;;
73850;SDS011;62190;51.548;5.688;2023-05-10T04:27:23;145.65;;;44.80;;
73850;SDS011;62190;51.548;5.688;2023-05-10T04:29:52;150.62;;;48.20;;
73850;SDS011;62190;51.548;5.688;2023-05-10T04:32:19;99.83;;;46.00;;
73850;SDS011;62190;51.548;5.688;2023-05-10T04:34:47;121.02;;;45.55;;
73850;SDS011;62190;51.548;5.688;2023-05-10T04:37:14;92.55;;;42.17;;
73850;SDS011;62190;51.548;5.688;2023-05-10T04:39:42;112.30;;;44.80;;
73850;SDS011;62190;51.548;5.688;2023-05-10T04:42:12;115.30;;;45.95;;
73850;SDS011;62190;51.548;5.688;2023-05-10T04:44:40;95.53;;;43.23;;
73850;SDS011;62190;51.548;5.688;2023-05-10T04:47:08;108.32;;;45.65;;
73850;SDS011;62190;51.548;5.688;2023-05-10T04:49:38;117.67;;;46.48;;
73850;SDS011;62190;51.548;5.688;2023-05-10T04:52:05;136.82;;;52.85;;
73850;SDS011;62190;51.548;5.688;2023-05-10T04:54:33;136.00;;;52.50;;
73850;SDS011;62190;51.548;5.688;2023-05-10T04:57:00;145.40;;;53.80;;
73850;SDS011;62190;51.548;5.688;2023-05-10T04:59:29;151.20;;;55.33;;
73850;SDS011;62190;51.548;5.688;2023-05-10T05:01:56;154.63;;;53.80;;
73850;SDS011;62190;51.548;5.688;2023-05-10T05:04:24;125.90;;;52.13;;
73850;SDS011;62190;51.548;5.688;2023-05-10T05:06:51;172.70;;;57.70;;
73850;SDS011;62190;51.548;5.688;2023-05-10T05:09:18;133.35;;;52.27;;
73850;SDS011;62190;51.548;5.688;2023-05-10T05:11:45;96.40;;;43.40;;
73850;SDS011;62190;51.548;5.688;2023-05-10T05:14:16;96.95;;;41.60;;
73850;SDS011;62190;51.548;5.688;2023-05-10T05:16:43;80.95;;;38.88;;
73850;SDS011;62190;51.548;5.688;2023-05-10T05:19:10;116.22;;;40.90;;
73850;SDS011;62190;51.548;5.688;2023-05-10T05:21:38;78.42;;;35.95;;
73850;SDS011;62190;51.548;5.688;2023-05-10T05:24:06;73.85;;;34.90;;
73850;SDS011;62190;51.548;5.688;2023-05-10T05:26:33;67.35;;;33.67;;
73850;SDS011;62190;51.548;5.688;2023-05-10T05:29:03;63.83;;;28.90;;
73850;SDS011;62190;51.548;5.688;2023-05-10T05:31:30;69.53;;;33.20;;
73850;SDS011;62190;51.548;5.688;2023-05-10T05:33:58;74.10;;;33.75;;
73850;SDS011;62190;51.548;5.688;2023-05-10T05:36:25;65.35;;;32.38;;
73850;SDS011;62190;51.548;5.688;2023-05-10T05:38:54;58.05;;;29.40;;
73850;SDS011;62190;51.548;5.688;2023-05-10T05:41:21;60.08;;;30.05;;
73850;SDS011;62190;51.548;5.688;2023-05-10T05:43:50;55.35;;;28.55;;
73850;SDS011;62190;51.548;5.688;2023-05-10T05:46:17;62.95;;;29.48;;
73850;SDS011;62190;51.548;5.688;2023-05-10T05:48:45;64.25;;;28.83;;
73850;SDS011;62190;51.548;5.688;2023-05-10T05:51:12;56.15;;;28.42;;
73850;SDS011;62190;51.548;5.688;2023-05-10T05:53:39;49.40;;;26.85;;
73850;SDS011;62190;51.548;5.688;2023-05-10T05:56:07;52.55;;;28.02;;
73850;SDS011;62190;51.548;5.688;2023-05-10T05:58:35;48.60;;;26.27;;
73850;SDS011;62190;51.548;5.688;2023-05-10T06:01:02;49.88;;;25.82;;
73850;SDS011;62190;51.548;5.688;2023-05-10T06:03:29;44.55;;;24.15;;
73850;SDS011;62190;51.548;5.688;2023-05-10T06:05:57;43.60;;;25.37;;
73850;SDS011;62190;51.548;5.688;2023-05-10T06:08:24;43.83;;;24.77;;
73850;SDS011;62190;51.548;5.688;2023-05-10T06:10:51;47.33;;;24.75;;
73850;SDS011;62190;51.548;5.688;2023-05-10T06:13:18;42.83;;;24.55;;
73850;SDS011;62190;51.548;5.688;2023-05-10T06:15:46;43.98;;;24.60;;
73850;SDS011;62190;51.548;5.688;2023-05-10T06:18:13;45.43;;;25.10;;
73850;SDS011;62190;51.548;5.688;2023-05-10T06:20:41;44.35;;;24.87;;
73850;SDS011;62190;51.548;5.688;2023-05-10T06:23:08;37.85;;;22.95;;
73850;SDS011;62190;51.548;5.688;2023-05-10T06:25:36;37.15;;;20.32;;
73850;SDS011;62190;51.548;5.688;2023-05-10T06:28:03;34.13;;;19.73;;
73850;SDS011;62190;51.548;5.688;2023-05-10T06:30:31;34.73;;;21.20;;
73850;SDS011;62190;51.548;5.688;2023-05-10T06:32:59;40.88;;;22.40;;
73850;SDS011;62190;51.548;5.688;2023-05-10T06:35:26;34.20;;;21.93;;
73850;SDS011;62190;51.548;5.688;2023-05-10T06:37:54;37.85;;;21.52;;
73850;SDS011;62190;51.548;5.688;2023-05-10T06:40:21;35.98;;;21.40;;
73850;SDS011;62190;51.548;5.688;2023-05-10T06:42:49;38.02;;;22.48;;
73850;SDS011;62190;51.548;5.688;2023-05-10T06:45:16;34.88;;;20.17;;
73850;SDS011;62190;51.548;5.688;2023-05-10T06:47:44;33.73;;;19.73;;
73850;SDS011;62190;51.548;5.688;2023-05-10T06:50:11;33.67;;;19.07;;
73850;SDS011;62190;51.548;5.688;2023-05-10T06:52:38;33.35;;;20.82;;
73850;SDS011;62190;51.548;5.688;2023-05-10T06:55:06;33.98;;;21.30;;
73850;SDS011;62190;51.548;5.688;2023-05-10T06:57:34;34.27;;;19.12;;
73850;SDS011;62190;51.548;5.688;2023-05-10T07:00:04;34.98;;;21.23;;
73850;SDS011;62190;51.548;5.688;2023-05-10T07:02:33;34.48;;;21.23;;
73850;SDS011;62190;51.548;5.688;2023-05-10T07:05:00;36.15;;;20.50;;
73850;SDS011;62190;51.548;5.688;2023-05-10T07:07:28;36.85;;;22.05;;
73850;SDS011;62190;51.548;5.688;2023-05-10T07:09:55;36.50;;;21.37;;
73850;SDS011;62190;51.548;5.688;2023-05-10T07:12:23;36.80;;;22.15;;
73850;SDS011;62190;51.548;5.688;2023-05-10T07:14:51;40.15;;;23.62;;
73850;SDS011;62190;51.548;5.688;2023-05-10T07:17:18;40.70;;;22.07;;
73850;SDS011;62190;51.548;5.688;2023-05-10T07:19:46;39.83;;;23.10;;
73850;SDS011;62190;51.548;5.688;2023-05-10T07:22:14;41.88;;;25.10;;
73850;SDS011;62190;51.548;5.688;2023-05-10T07:24:42;40.30;;;24.65;;
73850;SDS011;62190;51.548;5.688;2023-05-10T07:27:09;39.83;;;22.70;;
73850;SDS011;62190;51.548;5.688;2023-05-10T07:29:37;39.48;;;23.80;;
73850;SDS011;62190;51.548;5.688;2023-05-10T07:32:04;37.65;;;23.18;;
73850;SDS011;62190;51.548;5.688;2023-05-10T07:34:32;42.70;;;24.37;;
73850;SDS011;62190;51.548;5.688;2023-05-10T07:36:59;37.17;;;23.55;;
73850;SDS011;62190;51.548;5.688;2023-05-10T07:39:27;39.27;;;24.25;;
73850;SDS011;62190;51.548;5.688;2023-05-10T07:41:54;41.98;;;23.45;;
73850;SDS011;62190;51.548;5.688;2023-05-10T07:44:22;38.75;;;23.10;;
73850;SDS011;62190;51.548;5.688;2023-05-10T07:46:50;44.60;;;24.57;;
73850;SDS011;62190;51.548;5.688;2023-05-10T07:49:17;44.20;;;26.65;;
73850;SDS011;62190;51.548;5.688;2023-05-10T07:51:44;37.93;;;23.05;;
73850;SDS011;62190;51.548;5.688;2023-05-10T07:54:12;43.70;;;25.70;;
73850;SDS011;62190;51.548;5.688;2023-05-10T07:56:40;39.30;;;24.27;;
73850;SDS011;62190;51.548;5.688;2023-05-10T07:59:09;41.08;;;26.40;;
73850;SDS011;62190;51.548;5.688;2023-05-10T08:01:36;40.08;;;24.72;;
73850;SDS011;62190;51.548;5.688;2023-05-10T08:04:03;39.98;;;24.47;;
73850;SDS011;62190;51.548;5.688;2023-05-10T08:06:30;44.10;;;27.75;;
73850;SDS011;62190;51.548;5.688;2023-05-10T08:08:58;37.90;;;24.37;;
73850;SDS011;62190;51.548;5.688;2023-05-10T08:11:25;45.63;;;26.70;;
73850;SDS011;62190;51.548;5.688;2023-05-10T08:13:53;40.58;;;23.52;;
73850;SDS011;62190;51.548;5.688;2023-05-10T08:16:21;39.45;;;25.32;;
73850;SDS011;62190;51.548;5.688;2023-05-10T08:18:48;37.95;;;24.35;;
73850;SDS011;62190;51.548;5.688;2023-05-10T08:21:16;41.50;;;25.37;;
73850;SDS011;62190;51.548;5.688;2023-05-10T08:23:43;43.52;;;23.70;;
73850;SDS011;62190;51.548;5.688;2023-05-10T08:26:11;42.25;;;25.15;;
73850;SDS011;62190;51.548;5.688;2023-05-10T08:28:38;43.63;;;25.45;;
73850;SDS011;62190;51.548;5.688;2023-05-10T08:31:05;40.67;;;24.15;;
73850;SDS011;62190;51.548;5.688;2023-05-10T08:33:33;45.48;;;25.35;;
73850;SDS011;62190;51.548;5.688;2023-05-10T08:36:00;43.63;;;25.25;;
73850;SDS011;62190;51.548;5.688;2023-05-10T08:38:28;39.00;;;23.07;;
73850;SDS011;62190;51.548;5.688;2023-05-10T08:40:55;40.20;;;23.15;;
73850;SDS011;62190;51.548;5.688;2023-05-10T08:43:25;35.10;;;22.35;;
73850;SDS011;62190;51.548;5.688;2023-05-10T08:45:54;34.25;;;22.02;;
73850;SDS011;62190;51.548;5.688;2023-05-10T08:48:25;32.13;;;19.60;;
73850;SDS011;62190;51.548;5.688;2023-05-10T08:50:53;30.37;;;19.42;;
73850;SDS011;62190;51.548;5.688;2023-05-10T08:53:21;29.25;;;18.95;;
73850;SDS011;62190;51.548;5.688;2023-05-10T08:55:52;26.12;;;18.35;;
73850;SDS011;62190;51.548;5.688;2023-05-10T08:58:19;32.15;;;18.25;;
73850;SDS011;62190;51.548;5.688;2023-05-10T09:00:48;27.32;;;16.15;;
73850;SDS011;62190;51.548;5.688;2023-05-10T09:03:18;20.92;;;15.93;;
73850;SDS011;62190;51.548;5.688;2023-05-10T09:05:46;24.10;;;17.65;;
73850;SDS011;62190;51.548;5.688;2023-05-10T09:08:14;26.35;;;18.23;;
73850;SDS011;62190;51.548;5.688;2023-05-10T09:10:44;21.60;;;15.43;;
73850;SDS011;62190;51.548;5.688;2023-05-10T09:13:13;19.65;;;13.80;;
73850;SDS011;62190;51.548;5.688;2023-05-10T09:15:41;17.45;;;13.00;;
73850;SDS011;62190;51.548;5.688;2023-05-10T09:18:09;20.12;;;14.80;;
73850;SDS011;62190;51.548;5.688;2023-05-10T09:20:37;16.48;;;12.93;;
73850;SDS011;62190;51.548;5.688;2023-05-10T09:23:04;16.25;;;12.85;;
73850;SDS011;62190;51.548;5.688;2023-05-10T09:25:32;16.30;;;12.88;;
73850;SDS011;62190;51.548;5.688;2023-05-10T09:27:59;14.73;;;11.48;;
73850;SDS011;62190;51.548;5.688;2023-05-10T09:30:30;16.87;;;11.68;;
73850;SDS011;62190;51.548;5.688;2023-05-10T09:32:57;17.32;;;12.58;;
73850;SDS011;62190;51.548;5.688;2023-05-10T09:35:27;14.35;;;11.90;;
73850;SDS011;62190;51.548;5.688;2023-05-10T09:37:55;15.90;;;12.95;;
73850;SDS011;62190;51.548;5.688;2023-05-10T09:40:25;12.90;;;9.28;;
73850;SDS011;62190;51.548;5.688;2023-05-10T09:42:54;14.05;;;8.93;;
73850;SDS011;62190;51.548;5.688;2023-05-10T09:45:36;12.95;;;9.65;;
73850;SDS011;62190;51.548;5.688;2023-05-10T09:48:03;10.43;;;7.67;;
73850;SDS011;62190;51.548;5.688;2023-05-10T09:50:31;13.40;;;7.08;;
73850;SDS011;62190;51.548;5.688;2023-05-10T09:53:00;11.08;;;7.28;;
73850;SDS011;62190;51.548;5.688;2023-05-10T09:55:41;11.20;;;7.50;;
73850;SDS011;62190;51.548;5.688;2023-05-10T09:58:15;10.43;;;6.97;;
73850;SDS011;62190;51.548;5.688;2023-05-10T10:00:43;12.03;;;8.08;;
73850;SDS011;62190;51.548;5.688;2023-05-10T10:03:13;14.18;;;8.50;;
73850;SDS011;62190;51.548;5.688;2023-05-10T10:05:42;13.60;;;7.60;;
73850;SDS011;62190;51.548;5.688;2023-05-10T10:08:10;12.70;;;6.60;;
73850;SDS011;62190;51.548;5.688;2023-05-10T10:10:38;9.38;;;6.87;;
73850;SDS011;62190;51.548;5.688;2023-05-10T10:13:10;10.38;;;7.30;;
73850;SDS011;62190;51.548;5.688;2023-05-10T10:15:38;9.73;;;6.62;;
73850;SDS011;62190;51.548;5.688;2023-05-10T10:18:05;9.08;;;6.80;;
73850;SDS011;62190;51.548;5.688;2023-05-10T10:20:33;8.63;;;6.03;;
73850;SDS011;62190;51.548;5.688;2023-05-10T10:23:01;8.38;;;5.08;;
73850;SDS011;62190;51.548;5.688;2023-05-10T10:25:29;12.13;;;6.00;;
73850;SDS011;62190;51.548;5.688;2023-05-10T10:28:04;9.13;;;5.47;;
73850;SDS011;62190;51.548;5.688;2023-05-10T10:30:42;8.90;;;5.85;;
73850;SDS011;62190;51.548;5.688;2023-05-10T10:36:00;7.53;;;4.87;;
73850;SDS011;62190;51.548;5.688;2023-05-10T10:38:41;8.15;;;5.28;;
73850;SDS011;62190;51.548;5.688;2023-05-10T10:41:27;5.62;;;4.45;;
73850;SDS011;62190;51.548;5.688;2023-05-10T10:52:22;13.15;;;6.12;;
73850;SDS011;62190;51.548;5.688;2023-05-10T10:54:53;9.33;;;7.22;;
73850;SDS011;62190;51.548;5.688;2023-05-10T11:05:45;14.73;;;11.15;;
73850;SDS011;62190;51.548;5.688;2023-05-10T11:08:19;16.32;;;12.05;;
73850;SDS011;62190;51.548;5.688;2023-05-10T11:13:39;16.55;;;12.68;;
73850;SDS011;62190;51.548;5.688;2023-05-10T11:16:22;17.12;;;12.37;;
73850;SDS011;62190;51.548;5.688;2023-05-10T11:19:01;14.13;;;10.90;;
73850;SDS011;62190;51.548;5.688;2023-05-10T11:21:29;13.48;;;10.90;;
73850;SDS011;62190;51.548;5.688;2023-05-10T11:23:58;14.53;;;12.82;;
73850;SDS011;62190;51.548;5.688;2023-05-10T11:26:32;17.07;;;12.35;;
73850;SDS011;62190;51.548;5.688;2023-05-10T11:29:01;13.08;;;10.30;;
73850;SDS011;62190;51.548;5.688;2023-05-10T11:31:30;14.87;;;9.98;;
73850;SDS011;62190;51.548;5.688;2023-05-10T11:33:58;12.65;;;9.33;;
73850;SDS011;62190;51.548;5.688;2023-05-10T11:36:32;14.35;;;9.20;;
73850;SDS011;62190;51.548;5.688;2023-05-10T11:39:01;10.40;;;8.98;;
73850;SDS011;62190;51.548;5.688;2023-05-10T11:41:30;12.15;;;7.75;;
73850;SDS011;62190;51.548;5.688;2023-05-10T11:43:58;10.28;;;7.67;;
73850;SDS011;62190;51.548;5.688;2023-05-10T11:46:26;9.05;;;6.08;;
73850;SDS011;62190;51.548;5.688;2023-05-10T11:48:55;7.28;;;6.55;;
73850;SDS011;62190;51.548;5.688;2023-05-10T11:51:32;8.43;;;6.53;;
73850;SDS011;62190;51.548;5.688;2023-05-10T11:54:06;12.55;;;8.33;;
73850;SDS011;62190;51.548;5.688;2023-05-10T11:56:36;9.33;;;8.33;;
73850;SDS011;62190;51.548;5.688;2023-05-10T11:59:05;14.63;;;9.25;;
73850;SDS011;62190;51.548;5.688;2023-05-10T12:01:35;14.03;;;10.63;;
73850;SDS011;62190;51.548;5.688;2023-05-10T12:04:02;12.63;;;9.45;;
73850;SDS011;62190;51.548;5.688;2023-05-10T12:06:30;12.50;;;9.50;;
73850;SDS011;62190;51.548;5.688;2023-05-10T12:08:59;11.50;;;8.50;;
73850;SDS011;62190;51.548;5.688;2023-05-10T12:11:29;8.35;;;6.47;;
73850;SDS011;62190;51.548;5.688;2023-05-10T12:13:56;9.38;;;7.08;;
73850;SDS011;62190;51.548;5.688;2023-05-10T12:16:24;9.13;;;6.87;;
73850;SDS011;62190;51.548;5.688;2023-05-10T12:18:53;13.95;;;8.93;;
73850;SDS011;62190;51.548;5.688;2023-05-10T12:21:22;16.52;;;10.18;;
73850;SDS011;62190;51.548;5.688;2023-05-10T12:23:50;14.35;;;10.65;;
73850;SDS011;62190;51.548;5.688;2023-05-10T12:26:23;17.17;;;12.47;;
73850;SDS011;62190;51.548;5.688;2023-05-10T12:28:53;20.82;;;13.45;;
73850;SDS011;62190;51.548;5.688;2023-05-10T12:31:21;22.75;;;13.78;;
73850;SDS011;62190;51.548;5.688;2023-05-10T12:33:49;11.15;;;8.28;;
73850;SDS011;62190;51.548;5.688;2023-05-10T12:36:16;11.33;;;9.03;;
73850;SDS011;62190;51.548;5.688;2023-05-10T12:38:44;8.88;;;7.67;;
73850;SDS011;62190;51.548;5.688;2023-05-10T12:41:15;17.95;;;7.85;;
73850;SDS011;62190;51.548;5.688;2023-05-10T12:43:44;21.70;;;11.00;;
73850;SDS011;62190;51.548;5.688;2023-05-10T12:46:12;20.23;;;12.00;;
73850;SDS011;62190;51.548;5.688;2023-05-10T12:48:41;20.85;;;13.22;;
73850;SDS011;62190;51.548;5.688;2023-05-10T12:51:10;22.13;;;13.88;;
73850;SDS011;62190;51.548;5.688;2023-05-10T12:53:41;24.32;;;16.32;;
73850;SDS011;62190;51.548;5.688;2023-05-10T12:56:10;27.22;;;17.90;;
73850;SDS011;62190;51.548;5.688;2023-05-10T12:58:38;33.48;;;17.67;;
73850;SDS011;62190;51.548;5.688;2023-05-10T13:01:05;30.72;;;18.32;;
73850;SDS011;62190;51.548;5.688;2023-05-10T13:03:33;25.00;;;15.98;;
73850;SDS011;62190;51.548;5.688;2023-05-10T13:06:01;23.85;;;18.20;;
73850;SDS011;62190;51.548;5.688;2023-05-10T13:08:28;29.70;;;19.55;;
73850;SDS011;62190;51.548;5.688;2023-05-10T13:10:57;23.98;;;17.87;;
73850;SDS011;62190;51.548;5.688;2023-05-10T13:13:25;18.90;;;14.43;;
73850;SDS011;62190;51.548;5.688;2023-05-10T13:15:53;22.32;;;15.93;;
73850;SDS011;62190;51.548;5.688;2023-05-10T13:18:20;20.48;;;15.88;;
73850;SDS011;62190;51.548;5.688;2023-05-10T13:20:47;19.12;;;14.63;;
73850;SDS011;62190;51.548;5.688;2023-05-10T13:23:15;19.60;;;15.50;;
73850;SDS011;62190;51.548;5.688;2023-05-10T13:25:42;22.17;;;16.57;;
73850;SDS011;62190;51.548;5.688;2023-05-10T13:28:09;20.37;;;16.05;;
73850;SDS011;62190;51.548;5.688;2023-05-10T13:30:37;20.02;;;15.20;;
73850;SDS011;62190;51.548;5.688;2023-05-10T13:33:04;19.50;;;14.70;;
73850;SDS011;62190;51.548;5.688;2023-05-10T13:35:31;19.50;;;15.60;;
73850;SDS011;62190;51.548;5.688;2023-05-10T13:37:59;20.82;;;15.03;;
73850;SDS011;62190;51.548;5.688;2023-05-10T13:40:26;16.32;;;14.55;;
73850;SDS011;62190;51.548;5.688;2023-05-10T13:42:54;15.85;;;13.85;;
73850;SDS011;62190;51.548;5.688;2023-05-10T13:45:21;14.38;;;12.58;;
73850;SDS011;62190;51.548;5.688;2023-05-10T13:47:48;14.50;;;13.00;;
73850;SDS011;62190;51.548;5.688;2023-05-10T13:50:16;15.03;;;13.43;;
73850;SDS011;62190;51.548;5.688;2023-05-10T13:52:43;16.48;;;13.32;;
73850;SDS011;62190;51.548;5.688;2023-05-10T13:55:12;14.38;;;12.88;;
73850;SDS011;62190;51.548;5.688;2023-05-10T13:57:39;12.63;;;11.30;;
73850;SDS011;62190;51.548;5.688;2023-05-10T14:00:08;11.38;;;9.85;;
73850;SDS011;62190;51.548;5.688;2023-05-10T14:02:36;11.63;;;10.43;;
73850;SDS011;62190;51.548;5.688;2023-05-10T14:05:03;10.80;;;9.70;;
73850;SDS011;62190;51.548;5.688;2023-05-10T14:07:31;13.53;;;12.23;;
73850;SDS011;62190;51.548;5.688;2023-05-10T14:09:59;13.58;;;11.45;;
73850;SDS011;62190;51.548;5.688;2023-05-10T14:12:27;12.88;;;11.43;;
73850;SDS011;62190;51.548;5.688;2023-05-10T14:14:54;14.23;;;11.73;;
73850;SDS011;62190;51.548;5.688;2023-05-10T14:17:21;15.30;;;13.38;;
73850;SDS011;62190;51.548;5.688;2023-05-10T14:19:49;13.48;;;11.25;;
73850;SDS011;62190;51.548;5.688;2023-05-10T14:22:16;15.05;;;12.03;;
73850;SDS011;62190;51.548;5.688;2023-05-10T14:24:44;11.12;;;10.03;;
73850;SDS011;62190;51.548;5.688;2023-05-10T14:27:12;13.08;;;11.63;;
73850;SDS011;62190;51.548;5.688;2023-05-10T14:29:40;11.75;;;10.35;;
73850;SDS011;62190;51.548;5.688;2023-05-10T14:32:07;12.00;;;10.00;;
73850;SDS011;62190;51.548;5.688;2023-05-10T14:34:35;10.35;;;9.35;;
73850;SDS011;62190;51.548;5.688;2023-05-10T14:37:02;10.82;;;9.55;;
73850;SDS011;62190;51.548;5.688;2023-05-10T14:39:30;11.55;;;8.95;;
73850;SDS011;62190;51.548;5.688;2023-05-10T14:41:58;10.25;;;9.00;;
73850;SDS011;62190;51.548;5.688;2023-05-10T14:44:25;10.48;;;9.38;;
73850;SDS011;62190;51.548;5.688;2023-05-10T14:46:53;12.35;;;10.05;;
73850;SDS011;62190;51.548;5.688;2023-05-10T14:49:21;12.82;;;11.03;;
73850;SDS011;62190;51.548;5.688;2023-05-10T14:51:51;14.98;;;11.57;;
73850;SDS011;62190;51.548;5.688;2023-05-10T14:54:18;21.10;;;13.35;;
73850;SDS011;62190;51.548;5.688;2023-05-10T14:56:46;16.65;;;13.55;;
73850;SDS011;62190;51.548;5.688;2023-05-10T14:59:15;19.17;;;13.28;;
73850;SDS011;62190;51.548;5.688;2023-05-10T15:01:42;15.30;;;11.88;;
73850;SDS011;62190;51.548;5.688;2023-05-10T15:04:10;17.12;;;13.15;;